LRTR/TSR METAR and TAF weather

Enter ICAO airport designator
Station Type Date Time Source
LRTR METAR 2022/01/26 21:00 UTC NOAA

LRTR 262100Z VRB02KT 1100 R29/1600D -SN BR OVC001 M01/M01 Q1026


Station Type Date Time Source
LRTR Decoded METAR 2022/01/26 21:00 UTC NOAA

Timisoara, Romania (LRTR) 45-46N 021-15E 88M
Jan 26, 2022 - 04:00 PM EST / 2022.01.26 2100 UTC
Wind: Variable at 2 MPH (2 KT):0
Visibility: less than 1 mile:0
Sky conditions: overcast
Weather: light snow; mist
Temperature: 30 F (-1 C)
Dew Point: 30 F (-1 C)
Relative Humidity: 100%
Pressure (altimeter): 30.30 in. Hg (1026 hPa)
ob: LRTR 262100Z VRB02KT 1100 R29/1600D -SN BR OVC001 M01/M01 Q1026
cycle: 21

Station Type Date Time Source
LRTR TAF 2022/01/26 18:33 UTC NOAA

TAF LRTR 261700Z 2618/2718 VRB04KT 1500 -SNRA BR OVC005
TEMPO 2618/2621 0800 -SN FZFG OVC002
BECMG 2621/2623 3000 BR OVC010
TEMPO 2700/2703 1500 -SN BR OVC005
BECMG 2708/2710 5000 BKN025

Example: see airport list